sensor_id;sensor_type;location;lat;lon;timestamp;P1;durP1;ratioP1;P2;durP2;ratioP2
14734;SDS011;7458;49.002;8.472;2024-01-07T00:02:18;18.08;;;12.95;;
14734;SDS011;7458;49.002;8.472;2024-01-07T00:04:45;21.33;;;14.90;;
14734;SDS011;7458;49.002;8.472;2024-01-07T00:07:11;19.30;;;13.52;;
14734;SDS011;7458;49.002;8.472;2024-01-07T00:09:37;22.63;;;13.57;;
14734;SDS011;7458;49.002;8.472;2024-01-07T00:12:03;16.00;;;12.43;;
14734;SDS011;7458;49.002;8.472;2024-01-07T00:14:29;14.80;;;10.63;;
14734;SDS011;7458;49.002;8.472;2024-01-07T00:16:56;20.13;;;11.48;;
14734;SDS011;7458;49.002;8.472;2024-01-07T00:19:22;14.65;;;10.68;;
14734;SDS011;7458;49.002;8.472;2024-01-07T00:21:48;17.38;;;12.82;;
14734;SDS011;7458;49.002;8.472;2024-01-07T00:24:15;18.17;;;10.55;;
14734;SDS011;7458;49.002;8.472;2024-01-07T00:26:41;12.98;;;10.77;;
14734;SDS011;7458;49.002;8.472;2024-01-07T00:29:07;14.50;;;11.23;;
14734;SDS011;7458;49.002;8.472;2024-01-07T00:31:33;15.48;;;10.93;;
14734;SDS011;7458;49.002;8.472;2024-01-07T00:33:59;16.27;;;11.52;;
14734;SDS011;7458;49.002;8.472;2024-01-07T00:36:25;16.75;;;10.00;;
14734;SDS011;7458;49.002;8.472;2024-01-07T00:38:51;19.60;;;12.57;;
14734;SDS011;7458;49.002;8.472;2024-01-07T00:41:18;13.98;;;9.68;;
14734;SDS011;7458;49.002;8.472;2024-01-07T00:43:44;15.65;;;11.20;;
14734;SDS011;7458;49.002;8.472;2024-01-07T00:46:10;13.70;;;9.02;;
14734;SDS011;7458;49.002;8.472;2024-01-07T00:48:36;21.77;;;10.55;;
14734;SDS011;7458;49.002;8.472;2024-01-07T00:51:03;19.98;;;11.82;;
14734;SDS011;7458;49.002;8.472;2024-01-07T00:53:29;23.77;;;11.05;;
14734;SDS011;7458;49.002;8.472;2024-01-07T00:55:55;18.92;;;10.50;;
14734;SDS011;7458;49.002;8.472;2024-01-07T00:58:22;13.63;;;9.82;;
14734;SDS011;7458;49.002;8.472;2024-01-07T01:00:48;12.77;;;9.52;;
14734;SDS011;7458;49.002;8.472;2024-01-07T01:03:14;14.50;;;9.95;;
14734;SDS011;7458;49.002;8.472;2024-01-07T01:05:41;18.13;;;11.40;;
14734;SDS011;7458;49.002;8.472;2024-01-07T01:08:07;17.73;;;12.07;;
14734;SDS011;7458;49.002;8.472;2024-01-07T01:10:33;15.25;;;9.85;;
14734;SDS011;7458;49.002;8.472;2024-01-07T01:12:59;14.82;;;11.00;;
14734;SDS011;7458;49.002;8.472;2024-01-07T01:15:25;25.55;;;11.52;;
14734;SDS011;7458;49.002;8.472;2024-01-07T01:17:51;16.88;;;11.38;;
14734;SDS011;7458;49.002;8.472;2024-01-07T01:20:18;18.80;;;13.32;;
14734;SDS011;7458;49.002;8.472;2024-01-07T01:22:44;16.65;;;10.75;;
14734;SDS011;7458;49.002;8.472;2024-01-07T01:25:09;20.38;;;13.00;;
14734;SDS011;7458;49.002;8.472;2024-01-07T01:27:36;20.42;;;12.98;;
14734;SDS011;7458;49.002;8.472;2024-01-07T01:30:02;15.85;;;12.45;;
14734;SDS011;7458;49.002;8.472;2024-01-07T01:32:29;19.05;;;12.30;;
14734;SDS011;7458;49.002;8.472;2024-01-07T01:34:55;17.73;;;10.57;;
14734;SDS011;7458;49.002;8.472;2024-01-07T01:37:21;19.67;;;12.32;;
14734;SDS011;7458;49.002;8.472;2024-01-07T01:39:47;15.70;;;11.35;;
14734;SDS011;7458;49.002;8.472;2024-01-07T01:42:13;18.50;;;13.35;;
14734;SDS011;7458;49.002;8.472;2024-01-07T01:44:40;16.33;;;11.02;;
14734;SDS011;7458;49.002;8.472;2024-01-07T01:47:07;23.58;;;12.25;;
14734;SDS011;7458;49.002;8.472;2024-01-07T01:49:35;20.92;;;12.88;;
14734;SDS011;7458;49.002;8.472;2024-01-07T01:52:03;19.75;;;12.63;;
14734;SDS011;7458;49.002;8.472;2024-01-07T01:54:30;27.40;;;13.95;;
14734;SDS011;7458;49.002;8.472;2024-01-07T01:56:56;20.50;;;12.93;;
14734;SDS011;7458;49.002;8.472;2024-01-07T01:59:23;17.30;;;11.93;;
14734;SDS011;7458;49.002;8.472;2024-01-07T02:01:50;31.27;;;11.95;;
14734;SDS011;7458;49.002;8.472;2024-01-07T02:04:17;25.25;;;12.77;;
14734;SDS011;7458;49.002;8.472;2024-01-07T02:06:44;16.42;;;12.70;;
14734;SDS011;7458;49.002;8.472;2024-01-07T02:09:11;18.05;;;13.85;;
14734;SDS011;7458;49.002;8.472;2024-01-07T02:11:42;13.77;;;11.85;;
14734;SDS011;7458;49.002;8.472;2024-01-07T02:14:08;20.38;;;12.52;;
14734;SDS011;7458;49.002;8.472;2024-01-07T02:16:34;17.77;;;12.20;;
14734;SDS011;7458;49.002;8.472;2024-01-07T02:19:03;15.90;;;11.32;;
14734;SDS011;7458;49.002;8.472;2024-01-07T02:21:31;15.82;;;10.93;;
14734;SDS011;7458;49.002;8.472;2024-01-07T02:23:57;16.77;;;11.85;;
14734;SDS011;7458;49.002;8.472;2024-01-07T02:26:24;16.33;;;12.05;;
14734;SDS011;7458;49.002;8.472;2024-01-07T02:28:50;17.73;;;12.40;;
14734;SDS011;7458;49.002;8.472;2024-01-07T02:31:16;18.17;;;12.98;;
14734;SDS011;7458;49.002;8.472;2024-01-07T02:33:42;18.35;;;12.07;;
14734;SDS011;7458;49.002;8.472;2024-01-07T02:36:08;16.35;;;11.15;;
14734;SDS011;7458;49.002;8.472;2024-01-07T02:38:34;16.88;;;13.15;;
14734;SDS011;7458;49.002;8.472;2024-01-07T02:41:00;18.27;;;10.95;;
14734;SDS011;7458;49.002;8.472;2024-01-07T02:43:27;18.90;;;13.27;;
14734;SDS011;7458;49.002;8.472;2024-01-07T02:45:53;16.52;;;13.23;;
14734;SDS011;7458;49.002;8.472;2024-01-07T02:48:19;17.75;;;10.32;;
14734;SDS011;7458;49.002;8.472;2024-01-07T02:50:45;17.75;;;11.90;;
14734;SDS011;7458;49.002;8.472;2024-01-07T02:53:11;17.25;;;12.35;;
14734;SDS011;7458;49.002;8.472;2024-01-07T02:55:37;18.27;;;12.18;;
14734;SDS011;7458;49.002;8.472;2024-01-07T02:58:03;14.88;;;10.90;;
14734;SDS011;7458;49.002;8.472;2024-01-07T03:00:29;24.10;;;14.63;;
14734;SDS011;7458;49.002;8.472;2024-01-07T03:02:56;18.88;;;12.40;;
14734;SDS011;7458;49.002;8.472;2024-01-07T03:05:21;18.15;;;11.80;;
14734;SDS011;7458;49.002;8.472;2024-01-07T03:07:47;19.67;;;10.73;;
14734;SDS011;7458;49.002;8.472;2024-01-07T03:10:14;15.13;;;11.00;;
14734;SDS011;7458;49.002;8.472;2024-01-07T03:12:40;17.40;;;10.45;;
14734;SDS011;7458;49.002;8.472;2024-01-07T03:15:06;20.50;;;11.20;;
14734;SDS011;7458;49.002;8.472;2024-01-07T03:17:33;16.35;;;11.75;;
14734;SDS011;7458;49.002;8.472;2024-01-07T03:20:00;19.98;;;10.98;;
14734;SDS011;7458;49.002;8.472;2024-01-07T03:22:26;16.45;;;10.90;;
14734;SDS011;7458;49.002;8.472;2024-01-07T03:24:52;24.17;;;14.85;;
14734;SDS011;7458;49.002;8.472;2024-01-07T03:27:18;20.58;;;12.23;;
14734;SDS011;7458;49.002;8.472;2024-01-07T03:29:44;24.25;;;12.18;;
14734;SDS011;7458;49.002;8.472;2024-01-07T03:32:10;19.23;;;12.23;;
14734;SDS011;7458;49.002;8.472;2024-01-07T03:34:38;18.38;;;11.05;;
14734;SDS011;7458;49.002;8.472;2024-01-07T03:37:05;17.67;;;10.15;;
14734;SDS011;7458;49.002;8.472;2024-01-07T03:39:34;21.45;;;13.40;;
14734;SDS011;7458;49.002;8.472;2024-01-07T03:42:00;16.27;;;12.20;;
14734;SDS011;7458;49.002;8.472;2024-01-07T03:44:26;23.83;;;12.18;;
14734;SDS011;7458;49.002;8.472;2024-01-07T03:46:52;21.50;;;11.10;;
14734;SDS011;7458;49.002;8.472;2024-01-07T03:49:18;15.23;;;10.07;;
14734;SDS011;7458;49.002;8.472;2024-01-07T03:51:44;18.17;;;11.52;;
14734;SDS011;7458;49.002;8.472;2024-01-07T03:54:10;16.40;;;10.65;;
14734;SDS011;7458;49.002;8.472;2024-01-07T03:56:36;17.92;;;11.55;;
14734;SDS011;7458;49.002;8.472;2024-01-07T03:59:02;16.55;;;10.18;;
14734;SDS011;7458;49.002;8.472;2024-01-07T04:01:29;16.00;;;11.23;;
14734;SDS011;7458;49.002;8.472;2024-01-07T04:03:55;19.17;;;13.23;;
14734;SDS011;7458;49.002;8.472;2024-01-07T04:06:21;14.23;;;9.38;;
14734;SDS011;7458;49.002;8.472;2024-01-07T04:08:47;16.88;;;9.27;;
14734;SDS011;7458;49.002;8.472;2024-01-07T04:11:13;15.00;;;10.25;;
14734;SDS011;7458;49.002;8.472;2024-01-07T04:13:39;16.60;;;10.57;;
14734;SDS011;7458;49.002;8.472;2024-01-07T04:16:05;16.95;;;11.05;;
14734;SDS011;7458;49.002;8.472;2024-01-07T04:18:31;11.85;;;9.23;;
14734;SDS011;7458;49.002;8.472;2024-01-07T04:20:57;16.48;;;10.20;;
14734;SDS011;7458;49.002;8.472;2024-01-07T04:23:23;15.85;;;9.02;;
14734;SDS011;7458;49.002;8.472;2024-01-07T04:25:49;12.10;;;8.27;;
14734;SDS011;7458;49.002;8.472;2024-01-07T04:28:15;15.73;;;9.52;;
14734;SDS011;7458;49.002;8.472;2024-01-07T04:30:41;13.40;;;8.15;;
14734;SDS011;7458;49.002;8.472;2024-01-07T04:33:07;11.48;;;9.52;;
14734;SDS011;7458;49.002;8.472;2024-01-07T04:35:32;19.55;;;11.77;;
14734;SDS011;7458;49.002;8.472;2024-01-07T04:37:59;17.58;;;10.68;;
14734;SDS011;7458;49.002;8.472;2024-01-07T04:40:25;14.23;;;9.88;;
14734;SDS011;7458;49.002;8.472;2024-01-07T04:42:51;12.95;;;7.80;;
14734;SDS011;7458;49.002;8.472;2024-01-07T04:45:17;15.70;;;10.70;;
14734;SDS011;7458;49.002;8.472;2024-01-07T04:47:43;13.52;;;9.57;;
14734;SDS011;7458;49.002;8.472;2024-01-07T04:50:09;14.60;;;9.32;;
14734;SDS011;7458;49.002;8.472;2024-01-07T04:52:36;15.05;;;8.40;;
14734;SDS011;7458;49.002;8.472;2024-01-07T04:55:02;15.23;;;9.30;;
14734;SDS011;7458;49.002;8.472;2024-01-07T04:57:28;10.57;;;8.15;;
14734;SDS011;7458;49.002;8.472;2024-01-07T04:59:54;13.55;;;8.40;;
14734;SDS011;7458;49.002;8.472;2024-01-07T05:02:20;15.70;;;9.45;;
14734;SDS011;7458;49.002;8.472;2024-01-07T05:04:46;14.18;;;11.48;;
14734;SDS011;7458;49.002;8.472;2024-01-07T05:07:13;12.88;;;8.32;;
14734;SDS011;7458;49.002;8.472;2024-01-07T05:09:39;16.17;;;9.55;;
14734;SDS011;7458;49.002;8.472;2024-01-07T05:12:05;15.65;;;9.50;;
14734;SDS011;7458;49.002;8.472;2024-01-07T05:14:31;15.77;;;11.90;;
14734;SDS011;7458;49.002;8.472;2024-01-07T05:16:57;13.15;;;9.40;;
14734;SDS011;7458;49.002;8.472;2024-01-07T05:19:23;14.98;;;8.90;;
14734;SDS011;7458;49.002;8.472;2024-01-07T05:21:49;11.50;;;8.32;;
14734;SDS011;7458;49.002;8.472;2024-01-07T05:24:15;17.27;;;11.05;;
14734;SDS011;7458;49.002;8.472;2024-01-07T05:26:42;15.57;;;9.75;;
14734;SDS011;7458;49.002;8.472;2024-01-07T05:29:09;15.63;;;10.13;;
14734;SDS011;7458;49.002;8.472;2024-01-07T05:31:36;18.85;;;12.00;;
14734;SDS011;7458;49.002;8.472;2024-01-07T05:34:03;13.13;;;9.18;;
14734;SDS011;7458;49.002;8.472;2024-01-07T05:36:29;17.05;;;11.43;;
14734;SDS011;7458;49.002;8.472;2024-01-07T05:38:55;15.20;;;9.52;;
14734;SDS011;7458;49.002;8.472;2024-01-07T05:41:21;14.15;;;8.80;;
14734;SDS011;7458;49.002;8.472;2024-01-07T05:43:47;19.65;;;10.50;;
14734;SDS011;7458;49.002;8.472;2024-01-07T05:46:14;17.42;;;10.18;;
14734;SDS011;7458;49.002;8.472;2024-01-07T05:48:43;16.45;;;11.55;;
14734;SDS011;7458;49.002;8.472;2024-01-07T05:51:11;17.17;;;10.85;;
14734;SDS011;7458;49.002;8.472;2024-01-07T05:53:41;16.55;;;10.20;;
14734;SDS011;7458;49.002;8.472;2024-01-07T05:56:09;18.88;;;9.65;;
14734;SDS011;7458;49.002;8.472;2024-01-07T05:58:35;19.30;;;13.95;;
14734;SDS011;7458;49.002;8.472;2024-01-07T06:01:01;15.07;;;8.35;;
14734;SDS011;7458;49.002;8.472;2024-01-07T06:03:27;18.02;;;9.80;;
14734;SDS011;7458;49.002;8.472;2024-01-07T06:05:53;17.98;;;10.25;;
14734;SDS011;7458;49.002;8.472;2024-01-07T06:08:20;14.90;;;10.48;;
14734;SDS011;7458;49.002;8.472;2024-01-07T06:10:46;14.80;;;8.90;;
14734;SDS011;7458;49.002;8.472;2024-01-07T06:13:12;13.77;;;9.20;;
14734;SDS011;7458;49.002;8.472;2024-01-07T06:15:38;14.35;;;9.15;;
14734;SDS011;7458;49.002;8.472;2024-01-07T06:18:04;13.88;;;8.85;;
14734;SDS011;7458;49.002;8.472;2024-01-07T06:20:30;14.25;;;9.85;;
14734;SDS011;7458;49.002;8.472;2024-01-07T06:22:56;15.25;;;10.60;;
14734;SDS011;7458;49.002;8.472;2024-01-07T06:25:22;16.88;;;9.98;;
14734;SDS011;7458;49.002;8.472;2024-01-07T06:27:51;18.10;;;9.45;;
14734;SDS011;7458;49.002;8.472;2024-01-07T06:30:17;11.70;;;10.45;;
14734;SDS011;7458;49.002;8.472;2024-01-07T06:32:44;13.48;;;10.70;;
14734;SDS011;7458;49.002;8.472;2024-01-07T06:35:10;20.02;;;9.27;;
14734;SDS011;7458;49.002;8.472;2024-01-07T06:37:37;16.52;;;12.23;;
14734;SDS011;7458;49.002;8.472;2024-01-07T06:40:03;14.32;;;10.02;;
14734;SDS011;7458;49.002;8.472;2024-01-07T06:42:29;19.50;;;10.73;;
14734;SDS011;7458;49.002;8.472;2024-01-07T06:44:55;17.73;;;11.80;;
14734;SDS011;7458;49.002;8.472;2024-01-07T06:47:21;17.60;;;10.48;;
14734;SDS011;7458;49.002;8.472;2024-01-07T06:49:47;13.40;;;8.93;;
14734;SDS011;7458;49.002;8.472;2024-01-07T06:52:14;15.65;;;10.30;;
14734;SDS011;7458;49.002;8.472;2024-01-07T06:54:40;16.00;;;9.48;;
14734;SDS011;7458;49.002;8.472;2024-01-07T06:57:06;16.23;;;9.75;;
14734;SDS011;7458;49.002;8.472;2024-01-07T06:59:32;16.05;;;10.00;;
14734;SDS011;7458;49.002;8.472;2024-01-07T07:01:58;17.23;;;10.90;;
14734;SDS011;7458;49.002;8.472;2024-01-07T07:04:24;12.80;;;9.35;;
14734;SDS011;7458;49.002;8.472;2024-01-07T07:06:50;12.95;;;9.95;;
14734;SDS011;7458;49.002;8.472;2024-01-07T07:09:16;15.85;;;8.65;;
14734;SDS011;7458;49.002;8.472;2024-01-07T07:11:42;13.30;;;9.95;;
14734;SDS011;7458;49.002;8.472;2024-01-07T07:14:08;14.10;;;9.90;;
14734;SDS011;7458;49.002;8.472;2024-01-07T07:16:35;16.02;;;10.77;;
14734;SDS011;7458;49.002;8.472;2024-01-07T07:19:00;16.90;;;11.50;;
14734;SDS011;7458;49.002;8.472;2024-01-07T07:21:27;14.32;;;9.85;;
14734;SDS011;7458;49.002;8.472;2024-01-07T07:23:53;14.90;;;11.45;;
14734;SDS011;7458;49.002;8.472;2024-01-07T07:26:19;16.65;;;9.77;;
14734;SDS011;7458;49.002;8.472;2024-01-07T07:28:46;21.25;;;12.18;;
14734;SDS011;7458;49.002;8.472;2024-01-07T07:31:12;19.40;;;11.85;;
14734;SDS011;7458;49.002;8.472;2024-01-07T07:33:38;19.63;;;10.82;;
14734;SDS011;7458;49.002;8.472;2024-01-07T07:36:05;15.63;;;12.20;;
14734;SDS011;7458;49.002;8.472;2024-01-07T07:38:32;15.20;;;12.05;;
14734;SDS011;7458;49.002;8.472;2024-01-07T07:40:58;17.35;;;11.55;;
14734;SDS011;7458;49.002;8.472;2024-01-07T07:43:25;17.65;;;10.88;;
14734;SDS011;7458;49.002;8.472;2024-01-07T07:45:51;21.95;;;12.13;;
14734;SDS011;7458;49.002;8.472;2024-01-07T07:48:18;13.38;;;11.05;;
14734;SDS011;7458;49.002;8.472;2024-01-07T07:50:44;15.18;;;13.57;;
14734;SDS011;7458;49.002;8.472;2024-01-07T07:53:10;20.30;;;14.35;;
14734;SDS011;7458;49.002;8.472;2024-01-07T07:55:36;15.85;;;11.45;;
14734;SDS011;7458;49.002;8.472;2024-01-07T07:58:02;17.40;;;10.82;;
14734;SDS011;7458;49.002;8.472;2024-01-07T08:00:29;16.05;;;10.35;;
14734;SDS011;7458;49.002;8.472;2024-01-07T08:02:55;16.60;;;9.43;;
14734;SDS011;7458;49.002;8.472;2024-01-07T08:05:21;18.33;;;11.32;;
14734;SDS011;7458;49.002;8.472;2024-01-07T08:07:47;18.85;;;13.77;;
14734;SDS011;7458;49.002;8.472;2024-01-07T08:10:13;15.43;;;10.75;;
14734;SDS011;7458;49.002;8.472;2024-01-07T08:12:39;25.33;;;13.75;;
14734;SDS011;7458;49.002;8.472;2024-01-07T08:15:05;15.98;;;8.40;;
14734;SDS011;7458;49.002;8.472;2024-01-07T08:17:32;15.35;;;9.57;;
14734;SDS011;7458;49.002;8.472;2024-01-07T08:19:58;20.58;;;12.93;;
14734;SDS011;7458;49.002;8.472;2024-01-07T08:22:26;13.70;;;8.98;;
14734;SDS011;7458;49.002;8.472;2024-01-07T08:24:52;15.50;;;11.77;;
14734;SDS011;7458;49.002;8.472;2024-01-07T08:27:19;16.13;;;10.70;;
14734;SDS011;7458;49.002;8.472;2024-01-07T08:29:48;24.48;;;10.90;;
14734;SDS011;7458;49.002;8.472;2024-01-07T08:32:19;16.05;;;11.38;;
14734;SDS011;7458;49.002;8.472;2024-01-07T08:34:47;16.33;;;11.20;;
14734;SDS011;7458;49.002;8.472;2024-01-07T08:37:14;17.58;;;9.15;;
14734;SDS011;7458;49.002;8.472;2024-01-07T08:39:40;15.02;;;9.85;;
14734;SDS011;7458;49.002;8.472;2024-01-07T08:42:06;17.83;;;10.20;;
14734;SDS011;7458;49.002;8.472;2024-01-07T08:44:32;18.20;;;8.88;;
14734;SDS011;7458;49.002;8.472;2024-01-07T08:46:58;13.20;;;8.70;;
14734;SDS011;7458;49.002;8.472;2024-01-07T08:49:26;23.48;;;12.07;;
14734;SDS011;7458;49.002;8.472;2024-01-07T08:51:55;23.70;;;14.60;;
14734;SDS011;7458;49.002;8.472;2024-01-07T08:54:22;13.90;;;10.07;;
14734;SDS011;7458;49.002;8.472;2024-01-07T08:56:48;19.48;;;11.20;;
14734;SDS011;7458;49.002;8.472;2024-01-07T08:59:14;16.27;;;9.38;;
14734;SDS011;7458;49.002;8.472;2024-01-07T09:01:40;19.45;;;10.63;;
14734;SDS011;7458;49.002;8.472;2024-01-07T09:04:07;13.82;;;9.48;;
14734;SDS011;7458;49.002;8.472;2024-01-07T09:06:33;12.60;;;9.07;;
14734;SDS011;7458;49.002;8.472;2024-01-07T09:08:59;22.77;;;11.63;;
14734;SDS011;7458;49.002;8.472;2024-01-07T09:11:25;13.40;;;11.57;;
14734;SDS011;7458;49.002;8.472;2024-01-07T09:13:51;16.65;;;11.88;;
14734;SDS011;7458;49.002;8.472;2024-01-07T09:16:17;13.25;;;8.95;;
14734;SDS011;7458;49.002;8.472;2024-01-07T09:18:43;15.80;;;10.00;;
14734;SDS011;7458;49.002;8.472;2024-01-07T09:21:10;15.48;;;10.23;;
14734;SDS011;7458;49.002;8.472;2024-01-07T09:23:36;17.38;;;11.70;;
14734;SDS011;7458;49.002;8.472;2024-01-07T09:26:03;16.35;;;11.18;;
14734;SDS011;7458;49.002;8.472;2024-01-07T09:28:29;35.15;;;15.38;;
14734;SDS011;7458;49.002;8.472;2024-01-07T09:30:55;16.05;;;10.10;;
14734;SDS011;7458;49.002;8.472;2024-01-07T09:33:21;16.63;;;11.32;;
14734;SDS011;7458;49.002;8.472;2024-01-07T09:35:49;19.77;;;14.65;;
14734;SDS011;7458;49.002;8.472;2024-01-07T09:38:15;18.95;;;13.93;;
14734;SDS011;7458;49.002;8.472;2024-01-07T09:40:41;23.05;;;11.38;;
14734;SDS011;7458;49.002;8.472;2024-01-07T09:43:08;16.10;;;11.00;;
14734;SDS011;7458;49.002;8.472;2024-01-07T09:45:38;17.27;;;10.50;;
14734;SDS011;7458;49.002;8.472;2024-01-07T09:48:07;16.38;;;10.15;;
14734;SDS011;7458;49.002;8.472;2024-01-07T09:50:33;21.90;;;12.80;;
14734;SDS011;7458;49.002;8.472;2024-01-07T09:52:59;17.52;;;10.93;;
14734;SDS011;7458;49.002;8.472;2024-01-07T09:55:37;16.30;;;10.07;;
14734;SDS011;7458;49.002;8.472;2024-01-07T09:58:17;20.45;;;9.90;;
14734;SDS011;7458;49.002;8.472;2024-01-07T10:03:47;19.90;;;11.65;;
14734;SDS011;7458;49.002;8.472;2024-01-07T10:06:13;7.10;;;5.28;;
14734;SDS011;7458;49.002;8.472;2024-01-07T10:08:45;4.90;;;3.58;;
14734;SDS011;7458;49.002;8.472;2024-01-07T10:11:15;12.20;;;9.75;;
14734;SDS011;7458;49.002;8.472;2024-01-07T10:13:40;16.02;;;10.35;;
14734;SDS011;7458;49.002;8.472;2024-01-07T10:16:07;11.77;;;8.23;;
14734;SDS011;7458;49.002;8.472;2024-01-07T10:18:33;19.05;;;11.48;;
14734;SDS011;7458;49.002;8.472;2024-01-07T10:21:03;14.13;;;9.57;;
14734;SDS011;7458;49.002;8.472;2024-01-07T10:23:31;16.85;;;11.30;;
14734;SDS011;7458;49.002;8.472;2024-01-07T10:25:57;13.75;;;9.68;;
14734;SDS011;7458;49.002;8.472;2024-01-07T10:28:24;16.35;;;10.23;;
14734;SDS011;7458;49.002;8.472;2024-01-07T10:30:50;15.32;;;9.60;;
14734;SDS011;7458;49.002;8.472;2024-01-07T10:33:17;11.50;;;9.80;;
14734;SDS011;7458;49.002;8.472;2024-01-07T10:35:46;16.63;;;10.20;;
14734;SDS011;7458;49.002;8.472;2024-01-07T10:38:20;14.18;;;11.13;;
14734;SDS011;7458;49.002;8.472;2024-01-07T10:40:50;12.48;;;8.30;;
14734;SDS011;7458;49.002;8.472;2024-01-07T10:43:19;13.70;;;7.50;;
14734;SDS011;7458;49.002;8.472;2024-01-07T10:45:47;12.32;;;8.10;;
14734;SDS011;7458;49.002;8.472;2024-01-07T10:48:18;12.05;;;8.88;;
14734;SDS011;7458;49.002;8.472;2024-01-07T10:50:45;11.20;;;7.18;;
14734;SDS011;7458;49.002;8.472;2024-01-07T10:53:17;11.68;;;6.68;;
14734;SDS011;7458;49.002;8.472;2024-01-07T10:55:59;11.65;;;8.13;;
14734;SDS011;7458;49.002;8.472;2024-01-07T10:58:33;11.88;;;7.03;;
14734;SDS011;7458;49.002;8.472;2024-01-07T11:01:01;8.48;;;7.45;;
14734;SDS011;7458;49.002;8.472;2024-01-07T11:06:31;10.00;;;6.95;;
14734;SDS011;7458;49.002;8.472;2024-01-07T11:12:10;6.82;;;5.53;;
14734;SDS011;7458;49.002;8.472;2024-01-07T11:14:43;8.18;;;6.13;;
14734;SDS011;7458;49.002;8.472;2024-01-07T11:17:39;7.68;;;4.13;;
14734;SDS011;7458;49.002;8.472;2024-01-07T11:20:19;13.18;;;6.43;;
14734;SDS011;7458;49.002;8.472;2024-01-07T11:22:46;9.63;;;5.30;;
14734;SDS011;7458;49.002;8.472;2024-01-07T11:25:46;8.13;;;5.38;;
14734;SDS011;7458;49.002;8.472;2024-01-07T11:28:05;7.25;;;6.55;;
14734;SDS011;7458;49.002;8.472;2024-01-07T11:30:33;10.35;;;6.00;;
14734;SDS011;7458;49.002;8.472;2024-01-07T11:33:06;6.78;;;4.45;;
14734;SDS011;7458;49.002;8.472;2024-01-07T11:38:29;7.93;;;5.32;;
14734;SDS011;7458;49.002;8.472;2024-01-07T11:40:56;7.30;;;5.45;;
14734;SDS011;7458;49.002;8.472;2024-01-07T11:43:24;7.50;;;5.47;;
14734;SDS011;7458;49.002;8.472;2024-01-07T11:45:50;6.93;;;5.13;;
14734;SDS011;7458;49.002;8.472;2024-01-07T11:48:18;10.13;;;6.22;;
14734;SDS011;7458;49.002;8.472;2024-01-07T11:50:44;8.70;;;5.05;;
14734;SDS011;7458;49.002;8.472;2024-01-07T11:53:11;9.13;;;5.53;;
14734;SDS011;7458;49.002;8.472;2024-01-07T11:55:37;7.20;;;5.70;;
14734;SDS011;7458;49.002;8.472;2024-01-07T11:58:04;7.13;;;4.60;;
14734;SDS011;7458;49.002;8.472;2024-01-07T12:00:30;8.02;;;5.50;;
14734;SDS011;7458;49.002;8.472;2024-01-07T12:02:58;7.55;;;4.95;;
14734;SDS011;7458;49.002;8.472;2024-01-07T12:05:25;8.02;;;4.68;;
14734;SDS011;7458;49.002;8.472;2024-01-07T12:07:51;7.90;;;6.18;;
14734;SDS011;7458;49.002;8.472;2024-01-07T12:10:17;6.22;;;5.32;;
14734;SDS011;7458;49.002;8.472;2024-01-07T12:12:44;7.20;;;4.82;;
14734;SDS011;7458;49.002;8.472;2024-01-07T12:15:10;7.55;;;4.68;;
14734;SDS011;7458;49.002;8.472;2024-01-07T12:17:39;6.28;;;3.55;;
14734;SDS011;7458;49.002;8.472;2024-01-07T12:20:05;5.85;;;4.28;;
14734;SDS011;7458;49.002;8.472;2024-01-07T12:22:33;6.65;;;4.55;;
14734;SDS011;7458;49.002;8.472;2024-01-07T12:25:06;7.18;;;3.92;;
14734;SDS011;7458;49.002;8.472;2024-01-07T12:27:33;6.45;;;4.70;;
14734;SDS011;7458;49.002;8.472;2024-01-07T12:30:00;7.50;;;5.22;;
14734;SDS011;7458;49.002;8.472;2024-01-07T12:32:30;7.72;;;4.80;;
14734;SDS011;7458;49.002;8.472;2024-01-07T12:34:59;8.25;;;5.22;;
14734;SDS011;7458;49.002;8.472;2024-01-07T12:37:27;7.97;;;4.40;;
14734;SDS011;7458;49.002;8.472;2024-01-07T12:39:53;6.38;;;4.60;;
14734;SDS011;7458;49.002;8.472;2024-01-07T12:42:20;4.75;;;3.67;;
14734;SDS011;7458;49.002;8.472;2024-01-07T12:44:50;5.78;;;4.13;;
14734;SDS011;7458;49.002;8.472;2024-01-07T12:47:16;5.45;;;4.10;;
14734;SDS011;7458;49.002;8.472;2024-01-07T12:49:42;9.63;;;5.50;;
14734;SDS011;7458;49.002;8.472;2024-01-07T12:52:08;4.85;;;4.13;;
14734;SDS011;7458;49.002;8.472;2024-01-07T12:54:35;7.78;;;4.95;;
14734;SDS011;7458;49.002;8.472;2024-01-07T12:57:02;10.77;;;7.90;;
14734;SDS011;7458;49.002;8.472;2024-01-07T12:59:28;6.97;;;4.70;;
14734;SDS011;7458;49.002;8.472;2024-01-07T13:01:54;8.02;;;5.57;;
14734;SDS011;7458;49.002;8.472;2024-01-07T13:04:21;7.00;;;6.20;;
14734;SDS011;7458;49.002;8.472;2024-01-07T13:06:47;6.18;;;5.30;;
14734;SDS011;7458;49.002;8.472;2024-01-07T13:09:13;9.43;;;5.68;;
14734;SDS011;7458;49.002;8.472;2024-01-07T13:11:39;9.05;;;7.32;;
14734;SDS011;7458;49.002;8.472;2024-01-07T13:14:06;8.15;;;5.25;;
14734;SDS011;7458;49.002;8.472;2024-01-07T13:16:33;5.35;;;3.92;;
14734;SDS011;7458;49.002;8.472;2024-01-07T13:18:59;10.35;;;5.82;;
14734;SDS011;7458;49.002;8.472;2024-01-07T13:21:25;9.57;;;4.82;;
14734;SDS011;7458;49.002;8.472;2024-01-07T13:23:51;6.55;;;4.88;;
14734;SDS011;7458;49.002;8.472;2024-01-07T13:26:17;8.70;;;5.68;;
14734;SDS011;7458;49.002;8.472;2024-01-07T13:28:43;9.27;;;5.72;;
14734;SDS011;7458;49.002;8.472;2024-01-07T13:31:09;7.78;;;5.20;;
14734;SDS011;7458;49.002;8.472;2024-01-07T13:33:39;6.10;;;4.10;;
14734;SDS011;7458;49.002;8.472;2024-01-07T13:36:06;8.77;;;6.65;;
14734;SDS011;7458;49.002;8.472;2024-01-07T13:38:35;8.10;;;7.00;;
14734;SDS011;7458;49.002;8.472;2024-01-07T13:41:03;6.97;;;6.15;;
14734;SDS011;7458;49.002;8.472;2024-01-07T13:43:29;9.30;;;6.63;;
14734;SDS011;7458;49.002;8.472;2024-01-07T13:45:55;9.75;;;7.18;;
14734;SDS011;7458;49.002;8.472;2024-01-07T13:48:21;13.27;;;6.47;;
14734;SDS011;7458;49.002;8.472;2024-01-07T13:50:48;9.25;;;6.70;;
14734;SDS011;7458;49.002;8.472;2024-01-07T13:53:14;10.57;;;7.63;;
14734;SDS011;7458;49.002;8.472;2024-01-07T13:55:42;11.77;;;7.85;;
14734;SDS011;7458;49.002;8.472;2024-01-07T13:58:08;7.68;;;5.30;;
14734;SDS011;7458;49.002;8.472;2024-01-07T14:00:34;9.25;;;5.70;;
14734;SDS011;7458;49.002;8.472;2024-01-07T14:02:59;9.93;;;6.88;;
14734;SDS011;7458;49.002;8.472;2024-01-07T14:05:26;9.73;;;6.32;;
14734;SDS011;7458;49.002;8.472;2024-01-07T14:07:52;7.30;;;4.68;;
14734;SDS011;7458;49.002;8.472;2024-01-07T14:10:18;9.38;;;5.60;;
14734;SDS011;7458;49.002;8.472;2024-01-07T14:12:44;7.45;;;6.13;;
14734;SDS011;7458;49.002;8.472;2024-01-07T14:15:11;9.50;;;5.82;;
14734;SDS011;7458;49.002;8.472;2024-01-07T14:17:37;10.73;;;5.78;;
14734;SDS011;7458;49.002;8.472;2024-01-07T14:20:04;11.63;;;6.70;;
14734;SDS011;7458;49.002;8.472;2024-01-07T14:22:35;8.75;;;6.28;;
14734;SDS011;7458;49.002;8.472;2024-01-07T14:25:02;8.85;;;7.45;;
14734;SDS011;7458;49.002;8.472;2024-01-07T14:27:28;8.00;;;5.78;;
14734;SDS011;7458;49.002;8.472;2024-01-07T14:29:55;8.07;;;5.53;;
14734;SDS011;7458;49.002;8.472;2024-01-07T14:32:21;8.52;;;5.22;;
14734;SDS011;7458;49.002;8.472;2024-01-07T14:34:48;8.38;;;6.00;;
14734;SDS011;7458;49.002;8.472;2024-01-07T14:37:15;7.93;;;7.13;;
14734;SDS011;7458;49.002;8.472;2024-01-07T14:39:41;8.82;;;6.57;;
14734;SDS011;7458;49.002;8.472;2024-01-07T14:42:07;7.68;;;6.88;;
14734;SDS011;7458;49.002;8.472;2024-01-07T14:44:34;7.60;;;6.80;;
14734;SDS011;7458;49.002;8.472;2024-01-07T14:47:00;9.57;;;6.45;;
14734;SDS011;7458;49.002;8.472;2024-01-07T14:49:26;9.43;;;7.20;;
14734;SDS011;7458;49.002;8.472;2024-01-07T14:51:53;13.10;;;5.75;;
14734;SDS011;7458;49.002;8.472;2024-01-07T14:54:19;7.07;;;4.70;;